sensor_id;sensor_type;location;lat;lon;timestamp;P1;durP1;ratioP1;P2;durP2;ratioP2
14121;SDS011;7139;48.114;11.442;2022-09-09T00:02:15;2.90;;;1.60;;
14121;SDS011;7139;48.114;11.442;2022-09-09T00:04:46;2.57;;;1.50;;
14121;SDS011;7139;48.114;11.442;2022-09-09T00:07:21;2.40;;;1.50;;
14121;SDS011;7139;48.114;11.442;2022-09-09T00:09:57;2.43;;;1.60;;
14121;SDS011;7139;48.114;11.442;2022-09-09T00:12:32;1.87;;;1.50;;
14121;SDS011;7139;48.114;11.442;2022-09-09T00:15:05;3.43;;;1.83;;
14121;SDS011;7139;48.114;11.442;2022-09-09T00:17:38;2.90;;;1.80;;
14121;SDS011;7139;48.114;11.442;2022-09-09T00:20:13;3.33;;;1.53;;
14121;SDS011;7139;48.114;11.442;2022-09-09T00:22:45;2.90;;;1.70;;
14121;SDS011;7139;48.114;11.442;2022-09-09T00:25:19;2.30;;;1.70;;
14121;SDS011;7139;48.114;11.442;2022-09-09T00:27:52;2.50;;;1.60;;
14121;SDS011;7139;48.114;11.442;2022-09-09T00:30:20;2.07;;;1.40;;
14121;SDS011;7139;48.114;11.442;2022-09-09T00:32:50;2.30;;;1.57;;
14121;SDS011;7139;48.114;11.442;2022-09-09T00:35:25;3.07;;;1.70;;
14121;SDS011;7139;48.114;11.442;2022-09-09T00:37:56;1.53;;;1.37;;
14121;SDS011;7139;48.114;11.442;2022-09-09T00:40:29;3.10;;;1.80;;
14121;SDS011;7139;48.114;11.442;2022-09-09T00:43:10;3.63;;;1.60;;
14121;SDS011;7139;48.114;11.442;2022-09-09T00:48:44;3.70;;;1.83;;
14121;SDS011;7139;48.114;11.442;2022-09-09T00:51:21;2.13;;;1.80;;
14121;SDS011;7139;48.114;11.442;2022-09-09T00:54:03;2.77;;;2.00;;
14121;SDS011;7139;48.114;11.442;2022-09-09T00:56:56;3.37;;;1.50;;
14121;SDS011;7139;48.114;11.442;2022-09-09T00:59:32;1.80;;;1.70;;
14121;SDS011;7139;48.114;11.442;2022-09-09T01:02:07;3.50;;;1.70;;
14121;SDS011;7139;48.114;11.442;2022-09-09T01:04:39;2.90;;;1.77;;
14121;SDS011;7139;48.114;11.442;2022-09-09T01:07:11;2.10;;;1.57;;
14121;SDS011;7139;48.114;11.442;2022-09-09T01:09:46;4.30;;;1.87;;
14121;SDS011;7139;48.114;11.442;2022-09-09T01:12:23;2.87;;;2.30;;
14121;SDS011;7139;48.114;11.442;2022-09-09T01:14:56;3.70;;;1.73;;
14121;SDS011;7139;48.114;11.442;2022-09-09T01:17:30;3.13;;;1.50;;
14121;SDS011;7139;48.114;11.442;2022-09-09T01:20:04;2.03;;;1.73;;
14121;SDS011;7139;48.114;11.442;2022-09-09T01:22:43;4.97;;;1.60;;
14121;SDS011;7139;48.114;11.442;2022-09-09T01:25:22;2.40;;;1.77;;
14121;SDS011;7139;48.114;11.442;2022-09-09T01:27:56;3.17;;;1.80;;
14121;SDS011;7139;48.114;11.442;2022-09-09T01:30:26;3.37;;;1.67;;
14121;SDS011;7139;48.114;11.442;2022-09-09T01:32:55;3.10;;;1.50;;
14121;SDS011;7139;48.114;11.442;2022-09-09T01:35:37;2.70;;;1.70;;
14121;SDS011;7139;48.114;11.442;2022-09-09T01:38:10;3.67;;;1.60;;
14121;SDS011;7139;48.114;11.442;2022-09-09T01:40:37;3.40;;;1.70;;
14121;SDS011;7139;48.114;11.442;2022-09-09T01:43:06;4.30;;;1.70;;
14121;SDS011;7139;48.114;11.442;2022-09-09T01:45:33;2.33;;;1.50;;
14121;SDS011;7139;48.114;11.442;2022-09-09T01:48:00;2.33;;;1.60;;
14121;SDS011;7139;48.114;11.442;2022-09-09T01:50:28;4.97;;;1.80;;
14121;SDS011;7139;48.114;11.442;2022-09-09T01:52:56;1.43;;;1.33;;
14121;SDS011;7139;48.114;11.442;2022-09-09T01:55:28;1.97;;;1.77;;
14121;SDS011;7139;48.114;11.442;2022-09-09T01:57:59;4.20;;;2.03;;
14121;SDS011;7139;48.114;11.442;2022-09-09T02:00:38;2.97;;;1.63;;
14121;SDS011;7139;48.114;11.442;2022-09-09T02:03:12;1.90;;;1.70;;
14121;SDS011;7139;48.114;11.442;2022-09-09T02:05:48;1.77;;;1.53;;
14121;SDS011;7139;48.114;11.442;2022-09-09T02:08:20;1.60;;;1.50;;
14121;SDS011;7139;48.114;11.442;2022-09-09T02:10:53;2.70;;;1.83;;
14121;SDS011;7139;48.114;11.442;2022-09-09T02:13:26;1.50;;;1.40;;
14121;SDS011;7139;48.114;11.442;2022-09-09T02:15:59;1.70;;;1.60;;
14121;SDS011;7139;48.114;11.442;2022-09-09T02:18:32;1.70;;;1.40;;
14121;SDS011;7139;48.114;11.442;2022-09-09T02:21:03;2.23;;;1.50;;
14121;SDS011;7139;48.114;11.442;2022-09-09T02:23:30;1.77;;;1.60;;
14121;SDS011;7139;48.114;11.442;2022-09-09T02:25:59;1.80;;;1.50;;
14121;SDS011;7139;48.114;11.442;2022-09-09T02:28:30;3.70;;;1.67;;
14121;SDS011;7139;48.114;11.442;2022-09-09T02:30:58;4.17;;;1.80;;
14121;SDS011;7139;48.114;11.442;2022-09-09T02:33:27;3.37;;;1.60;;
14121;SDS011;7139;48.114;11.442;2022-09-09T02:35:56;3.53;;;1.67;;
14121;SDS011;7139;48.114;11.442;2022-09-09T02:38:28;2.70;;;1.67;;
14121;SDS011;7139;48.114;11.442;2022-09-09T02:41:00;1.93;;;1.57;;
14121;SDS011;7139;48.114;11.442;2022-09-09T02:43:31;2.67;;;1.63;;
14121;SDS011;7139;48.114;11.442;2022-09-09T02:46:00;2.57;;;1.67;;
14121;SDS011;7139;48.114;11.442;2022-09-09T02:48:36;2.13;;;1.40;;
14121;SDS011;7139;48.114;11.442;2022-09-09T02:51:13;3.27;;;1.60;;
14121;SDS011;7139;48.114;11.442;2022-09-09T02:53:47;2.20;;;1.80;;
14121;SDS011;7139;48.114;11.442;2022-09-09T02:56:21;1.90;;;1.70;;
14121;SDS011;7139;48.114;11.442;2022-09-09T02:58:52;3.43;;;1.77;;
14121;SDS011;7139;48.114;11.442;2022-09-09T03:01:19;2.03;;;1.50;;
14121;SDS011;7139;48.114;11.442;2022-09-09T03:03:46;1.63;;;1.53;;
14121;SDS011;7139;48.114;11.442;2022-09-09T03:06:13;2.57;;;1.70;;
14121;SDS011;7139;48.114;11.442;2022-09-09T03:08:40;3.50;;;1.80;;
14121;SDS011;7139;48.114;11.442;2022-09-09T03:11:07;2.47;;;1.50;;
14121;SDS011;7139;48.114;11.442;2022-09-09T03:13:35;3.40;;;1.80;;
14121;SDS011;7139;48.114;11.442;2022-09-09T03:16:04;3.27;;;1.90;;
14121;SDS011;7139;48.114;11.442;2022-09-09T03:18:31;2.73;;;1.60;;
14121;SDS011;7139;48.114;11.442;2022-09-09T03:20:59;4.10;;;1.60;;
14121;SDS011;7139;48.114;11.442;2022-09-09T03:23:26;2.80;;;1.60;;
14121;SDS011;7139;48.114;11.442;2022-09-09T03:25:53;2.10;;;1.70;;
14121;SDS011;7139;48.114;11.442;2022-09-09T03:28:22;1.83;;;1.67;;
14121;SDS011;7139;48.114;11.442;2022-09-09T03:30:57;2.93;;;1.63;;
14121;SDS011;7139;48.114;11.442;2022-09-09T03:33:26;2.47;;;1.73;;
14121;SDS011;7139;48.114;11.442;2022-09-09T03:35:54;2.33;;;1.60;;
14121;SDS011;7139;48.114;11.442;2022-09-09T03:38:22;2.50;;;1.50;;
14121;SDS011;7139;48.114;11.442;2022-09-09T03:40:49;3.60;;;1.60;;
14121;SDS011;7139;48.114;11.442;2022-09-09T03:43:16;3.43;;;1.40;;
14121;SDS011;7139;48.114;11.442;2022-09-09T03:45:45;2.10;;;1.60;;
14121;SDS011;7139;48.114;11.442;2022-09-09T03:48:13;2.60;;;1.67;;
14121;SDS011;7139;48.114;11.442;2022-09-09T03:50:44;1.73;;;1.60;;
14121;SDS011;7139;48.114;11.442;2022-09-09T03:53:11;3.13;;;1.70;;
14121;SDS011;7139;48.114;11.442;2022-09-09T03:55:39;2.60;;;1.70;;
14121;SDS011;7139;48.114;11.442;2022-09-09T03:58:10;2.97;;;1.63;;
14121;SDS011;7139;48.114;11.442;2022-09-09T04:00:37;3.10;;;1.70;;
14121;SDS011;7139;48.114;11.442;2022-09-09T04:03:07;2.87;;;1.70;;
14121;SDS011;7139;48.114;11.442;2022-09-09T04:05:34;2.20;;;1.57;;
14121;SDS011;7139;48.114;11.442;2022-09-09T04:08:06;3.00;;;1.57;;
14121;SDS011;7139;48.114;11.442;2022-09-09T04:10:33;2.57;;;1.67;;
14121;SDS011;7139;48.114;11.442;2022-09-09T04:13:02;2.77;;;1.63;;
14121;SDS011;7139;48.114;11.442;2022-09-09T04:15:29;3.57;;;1.60;;
14121;SDS011;7139;48.114;11.442;2022-09-09T04:17:56;2.23;;;1.70;;
14121;SDS011;7139;48.114;11.442;2022-09-09T04:20:23;1.70;;;1.60;;
14121;SDS011;7139;48.114;11.442;2022-09-09T04:22:49;2.47;;;1.70;;
14121;SDS011;7139;48.114;11.442;2022-09-09T04:25:17;3.37;;;1.53;;
14121;SDS011;7139;48.114;11.442;2022-09-09T04:27:44;1.83;;;1.60;;
14121;SDS011;7139;48.114;11.442;2022-09-09T04:30:12;2.90;;;1.50;;
14121;SDS011;7139;48.114;11.442;2022-09-09T04:32:39;2.47;;;1.33;;
14121;SDS011;7139;48.114;11.442;2022-09-09T04:35:06;1.50;;;1.40;;
14121;SDS011;7139;48.114;11.442;2022-09-09T04:37:33;3.43;;;1.57;;
14121;SDS011;7139;48.114;11.442;2022-09-09T04:40:00;3.57;;;1.60;;
14121;SDS011;7139;48.114;11.442;2022-09-09T04:42:28;3.83;;;1.60;;
14121;SDS011;7139;48.114;11.442;2022-09-09T04:44:55;1.80;;;1.50;;
14121;SDS011;7139;48.114;11.442;2022-09-09T04:47:22;4.63;;;1.60;;
14121;SDS011;7139;48.114;11.442;2022-09-09T04:49:49;3.70;;;1.53;;
14121;SDS011;7139;48.114;11.442;2022-09-09T04:52:16;5.00;;;1.73;;
14121;SDS011;7139;48.114;11.442;2022-09-09T04:54:43;3.63;;;1.67;;
14121;SDS011;7139;48.114;11.442;2022-09-09T04:57:10;1.87;;;1.60;;
14121;SDS011;7139;48.114;11.442;2022-09-09T04:59:38;3.30;;;1.70;;
14121;SDS011;7139;48.114;11.442;2022-09-09T05:02:05;5.17;;;1.90;;
14121;SDS011;7139;48.114;11.442;2022-09-09T05:04:32;3.30;;;1.70;;
14121;SDS011;7139;48.114;11.442;2022-09-09T05:06:59;7.70;;;2.27;;
14121;SDS011;7139;48.114;11.442;2022-09-09T05:09:25;2.83;;;1.80;;
14121;SDS011;7139;48.114;11.442;2022-09-09T05:11:52;4.17;;;1.93;;
14121;SDS011;7139;48.114;11.442;2022-09-09T05:14:19;3.00;;;1.83;;
14121;SDS011;7139;48.114;11.442;2022-09-09T05:16:48;5.80;;;2.10;;
14121;SDS011;7139;48.114;11.442;2022-09-09T05:19:16;2.57;;;1.97;;
14121;SDS011;7139;48.114;11.442;2022-09-09T05:21:44;3.53;;;1.70;;
14121;SDS011;7139;48.114;11.442;2022-09-09T05:24:11;6.80;;;2.27;;
14121;SDS011;7139;48.114;11.442;2022-09-09T05:26:38;8.30;;;2.13;;
14121;SDS011;7139;48.114;11.442;2022-09-09T05:29:05;7.23;;;2.10;;
14121;SDS011;7139;48.114;11.442;2022-09-09T05:31:33;11.07;;;2.67;;
14121;SDS011;7139;48.114;11.442;2022-09-09T05:34:01;8.70;;;2.73;;
14121;SDS011;7139;48.114;11.442;2022-09-09T05:36:28;8.20;;;2.33;;
14121;SDS011;7139;48.114;11.442;2022-09-09T05:38:55;8.20;;;2.20;;
14121;SDS011;7139;48.114;11.442;2022-09-09T05:41:21;5.80;;;2.57;;
14121;SDS011;7139;48.114;11.442;2022-09-09T05:43:49;10.10;;;2.20;;
14121;SDS011;7139;48.114;11.442;2022-09-09T05:46:16;7.47;;;1.90;;
14121;SDS011;7139;48.114;11.442;2022-09-09T05:48:45;3.60;;;1.90;;
14121;SDS011;7139;48.114;11.442;2022-09-09T05:51:15;13.07;;;3.13;;
14121;SDS011;7139;48.114;11.442;2022-09-09T05:53:42;14.17;;;3.30;;
14121;SDS011;7139;48.114;11.442;2022-09-09T05:56:11;17.40;;;3.23;;
14121;SDS011;7139;48.114;11.442;2022-09-09T05:58:39;15.27;;;2.93;;
14121;SDS011;7139;48.114;11.442;2022-09-09T06:01:09;18.73;;;3.30;;
14121;SDS011;7139;48.114;11.442;2022-09-09T06:03:38;11.60;;;3.13;;
14121;SDS011;7139;48.114;11.442;2022-09-09T06:06:07;17.33;;;3.37;;
14121;SDS011;7139;48.114;11.442;2022-09-09T06:08:37;9.97;;;2.63;;
14121;SDS011;7139;48.114;11.442;2022-09-09T06:11:05;8.50;;;2.43;;
14121;SDS011;7139;48.114;11.442;2022-09-09T06:13:33;9.83;;;2.37;;
14121;SDS011;7139;48.114;11.442;2022-09-09T06:16:02;12.50;;;2.73;;
14121;SDS011;7139;48.114;11.442;2022-09-09T06:18:29;7.43;;;2.40;;
14121;SDS011;7139;48.114;11.442;2022-09-09T06:20:56;10.67;;;2.40;;
14121;SDS011;7139;48.114;11.442;2022-09-09T06:23:25;6.13;;;2.50;;
14121;SDS011;7139;48.114;11.442;2022-09-09T06:26:01;4.23;;;2.33;;
14121;SDS011;7139;48.114;11.442;2022-09-09T06:28:30;9.10;;;2.40;;
14121;SDS011;7139;48.114;11.442;2022-09-09T06:30:57;4.33;;;2.03;;
14121;SDS011;7139;48.114;11.442;2022-09-09T06:33:24;6.33;;;2.20;;
14121;SDS011;7139;48.114;11.442;2022-09-09T06:35:53;5.00;;;1.90;;
14121;SDS011;7139;48.114;11.442;2022-09-09T06:38:20;3.43;;;1.90;;
14121;SDS011;7139;48.114;11.442;2022-09-09T06:40:50;7.23;;;2.00;;
14121;SDS011;7139;48.114;11.442;2022-09-09T06:43:20;3.03;;;1.87;;
14121;SDS011;7139;48.114;11.442;2022-09-09T06:45:55;6.03;;;2.13;;
14121;SDS011;7139;48.114;11.442;2022-09-09T06:48:22;3.63;;;1.50;;
14121;SDS011;7139;48.114;11.442;2022-09-09T06:50:51;6.43;;;1.70;;
14121;SDS011;7139;48.114;11.442;2022-09-09T06:53:25;4.30;;;1.67;;
14121;SDS011;7139;48.114;11.442;2022-09-09T06:55:52;8.93;;;2.00;;
14121;SDS011;7139;48.114;11.442;2022-09-09T06:58:21;7.30;;;1.93;;
14121;SDS011;7139;48.114;11.442;2022-09-09T07:00:48;6.53;;;1.93;;
14121;SDS011;7139;48.114;11.442;2022-09-09T07:03:15;11.47;;;2.53;;
14121;SDS011;7139;48.114;11.442;2022-09-09T07:05:42;4.00;;;1.60;;
14121;SDS011;7139;48.114;11.442;2022-09-09T07:08:09;3.33;;;1.60;;
14121;SDS011;7139;48.114;11.442;2022-09-09T07:10:37;1.90;;;1.80;;
14121;SDS011;7139;48.114;11.442;2022-09-09T07:13:03;3.73;;;1.40;;
14121;SDS011;7139;48.114;11.442;2022-09-09T07:15:32;2.20;;;1.60;;
14121;SDS011;7139;48.114;11.442;2022-09-09T07:18:00;1.40;;;1.20;;
14121;SDS011;7139;48.114;11.442;2022-09-09T07:20:28;2.33;;;1.50;;
14121;SDS011;7139;48.114;11.442;2022-09-09T07:22:55;2.07;;;1.30;;
14121;SDS011;7139;48.114;11.442;2022-09-09T07:25:23;1.60;;;1.20;;
14121;SDS011;7139;48.114;11.442;2022-09-09T07:27:56;1.67;;;1.47;;
14121;SDS011;7139;48.114;11.442;2022-09-09T07:30:22;1.70;;;1.60;;
14121;SDS011;7139;48.114;11.442;2022-09-09T07:32:51;2.40;;;1.40;;
14121;SDS011;7139;48.114;11.442;2022-09-09T07:35:18;1.20;;;1.10;;
14121;SDS011;7139;48.114;11.442;2022-09-09T07:37:45;1.23;;;1.13;;
14121;SDS011;7139;48.114;11.442;2022-09-09T07:40:12;1.50;;;1.30;;
14121;SDS011;7139;48.114;11.442;2022-09-09T07:42:38;1.93;;;1.30;;
14121;SDS011;7139;48.114;11.442;2022-09-09T07:45:05;1.63;;;1.37;;
14121;SDS011;7139;48.114;11.442;2022-09-09T07:47:32;1.87;;;1.40;;
14121;SDS011;7139;48.114;11.442;2022-09-09T07:50:00;1.37;;;1.23;;
14121;SDS011;7139;48.114;11.442;2022-09-09T07:52:27;2.10;;;1.40;;
14121;SDS011;7139;48.114;11.442;2022-09-09T07:54:54;3.73;;;1.57;;
14121;SDS011;7139;48.114;11.442;2022-09-09T07:57:22;4.70;;;1.70;;
14121;SDS011;7139;48.114;11.442;2022-09-09T07:59:48;2.23;;;1.47;;
14121;SDS011;7139;48.114;11.442;2022-09-09T08:02:15;3.33;;;1.43;;
14121;SDS011;7139;48.114;11.442;2022-09-09T08:04:42;2.13;;;1.50;;
14121;SDS011;7139;48.114;11.442;2022-09-09T08:07:10;2.13;;;1.37;;
14121;SDS011;7139;48.114;11.442;2022-09-09T08:09:37;3.73;;;1.50;;
14121;SDS011;7139;48.114;11.442;2022-09-09T08:12:03;1.50;;;1.40;;
14121;SDS011;7139;48.114;11.442;2022-09-09T08:14:31;4.43;;;1.50;;
14121;SDS011;7139;48.114;11.442;2022-09-09T08:16:58;1.63;;;1.47;;
14121;SDS011;7139;48.114;11.442;2022-09-09T08:19:25;1.70;;;1.50;;
14121;SDS011;7139;48.114;11.442;2022-09-09T08:21:54;1.70;;;1.53;;
14121;SDS011;7139;48.114;11.442;2022-09-09T08:24:22;1.63;;;1.40;;
14121;SDS011;7139;48.114;11.442;2022-09-09T08:26:49;2.63;;;1.50;;
14121;SDS011;7139;48.114;11.442;2022-09-09T08:29:16;2.07;;;1.50;;
14121;SDS011;7139;48.114;11.442;2022-09-09T08:31:43;1.83;;;1.47;;
14121;SDS011;7139;48.114;11.442;2022-09-09T08:34:11;2.53;;;1.70;;
14121;SDS011;7139;48.114;11.442;2022-09-09T08:36:39;1.83;;;1.53;;
14121;SDS011;7139;48.114;11.442;2022-09-09T08:39:08;1.93;;;1.40;;
14121;SDS011;7139;48.114;11.442;2022-09-09T08:41:43;2.37;;;1.70;;
14121;SDS011;7139;48.114;11.442;2022-09-09T08:44:32;2.27;;;1.87;;
14121;SDS011;7139;48.114;11.442;2022-09-09T08:47:10;2.90;;;1.70;;
14121;SDS011;7139;48.114;11.442;2022-09-09T08:49:48;5.20;;;2.10;;
14121;SDS011;7139;48.114;11.442;2022-09-09T08:52:28;2.73;;;1.73;;
14121;SDS011;7139;48.114;11.442;2022-09-09T08:54:58;2.27;;;1.60;;
14121;SDS011;7139;48.114;11.442;2022-09-09T08:57:31;2.37;;;1.77;;
14121;SDS011;7139;48.114;11.442;2022-09-09T08:59:59;2.93;;;1.70;;
14121;SDS011;7139;48.114;11.442;2022-09-09T09:02:27;2.93;;;1.67;;
14121;SDS011;7139;48.114;11.442;2022-09-09T09:05:09;2.03;;;1.70;;
14121;SDS011;7139;48.114;11.442;2022-09-09T09:07:52;3.60;;;1.80;;
14121;SDS011;7139;48.114;11.442;2022-09-09T09:10:30;2.03;;;1.30;;
14121;SDS011;7139;48.114;11.442;2022-09-09T09:13:08;2.43;;;1.43;;
14121;SDS011;7139;48.114;11.442;2022-09-09T09:15:40;1.50;;;1.33;;
14121;SDS011;7139;48.114;11.442;2022-09-09T09:18:10;1.97;;;1.30;;
14121;SDS011;7139;48.114;11.442;2022-09-09T09:20:44;1.93;;;1.40;;
14121;SDS011;7139;48.114;11.442;2022-09-09T09:23:19;1.90;;;1.60;;
14121;SDS011;7139;48.114;11.442;2022-09-09T09:25:48;2.67;;;1.60;;
14121;SDS011;7139;48.114;11.442;2022-09-09T09:28:20;1.70;;;1.53;;
14121;SDS011;7139;48.114;11.442;2022-09-09T09:30:52;2.90;;;1.70;;
14121;SDS011;7139;48.114;11.442;2022-09-09T09:33:24;9.73;;;8.73;;
14121;SDS011;7139;48.114;11.442;2022-09-09T09:35:54;9.77;;;8.33;;
14121;SDS011;7139;48.114;11.442;2022-09-09T09:38:21;5.37;;;2.90;;
14121;SDS011;7139;48.114;11.442;2022-09-09T09:40:50;6.70;;;2.83;;
14121;SDS011;7139;48.114;11.442;2022-09-09T09:43:24;5.23;;;2.10;;
14121;SDS011;7139;48.114;11.442;2022-09-09T09:45:53;4.30;;;2.17;;
14121;SDS011;7139;48.114;11.442;2022-09-09T09:48:20;8.20;;;2.23;;
14121;SDS011;7139;48.114;11.442;2022-09-09T09:50:48;9.80;;;2.10;;
14121;SDS011;7139;48.114;11.442;2022-09-09T09:53:18;7.83;;;2.20;;
14121;SDS011;7139;48.114;11.442;2022-09-09T09:55:51;6.83;;;2.30;;
14121;SDS011;7139;48.114;11.442;2022-09-09T09:58:20;8.57;;;2.70;;
14121;SDS011;7139;48.114;11.442;2022-09-09T10:00:49;7.23;;;2.53;;
14121;SDS011;7139;48.114;11.442;2022-09-09T10:03:20;6.37;;;2.57;;
14121;SDS011;7139;48.114;11.442;2022-09-09T10:05:49;5.77;;;2.20;;
14121;SDS011;7139;48.114;11.442;2022-09-09T10:08:16;7.00;;;2.20;;
14121;SDS011;7139;48.114;11.442;2022-09-09T10:10:50;7.47;;;2.50;;
14121;SDS011;7139;48.114;11.442;2022-09-09T10:13:36;3.60;;;2.13;;
14121;SDS011;7139;48.114;11.442;2022-09-09T10:16:16;7.43;;;2.90;;
14121;SDS011;7139;48.114;11.442;2022-09-09T10:18:55;7.30;;;2.80;;
14121;SDS011;7139;48.114;11.442;2022-09-09T10:21:29;6.57;;;2.47;;
14121;SDS011;7139;48.114;11.442;2022-09-09T10:24:19;13.33;;;3.27;;
14121;SDS011;7139;48.114;11.442;2022-09-09T10:26:58;9.20;;;3.07;;
14121;SDS011;7139;48.114;11.442;2022-09-09T10:29:43;16.43;;;4.00;;
14121;SDS011;7139;48.114;11.442;2022-09-09T10:32:33;10.20;;;2.67;;
14121;SDS011;7139;48.114;11.442;2022-09-09T10:35:08;3.63;;;1.63;;
14121;SDS011;7139;48.114;11.442;2022-09-09T10:38:10;2.63;;;1.60;;
14121;SDS011;7139;48.114;11.442;2022-09-09T10:40:42;2.47;;;1.33;;
14121;SDS011;7139;48.114;11.442;2022-09-09T10:43:33;3.00;;;1.40;;
14121;SDS011;7139;48.114;11.442;2022-09-09T10:46:15;2.23;;;1.50;;
14121;SDS011;7139;48.114;11.442;2022-09-09T10:48:54;3.97;;;1.57;;
14121;SDS011;7139;48.114;11.442;2022-09-09T10:51:33;1.57;;;1.47;;
14121;SDS011;7139;48.114;11.442;2022-09-09T10:57:03;4.23;;;1.70;;
14121;SDS011;7139;48.114;11.442;2022-09-09T10:59:35;7.57;;;2.23;;
14121;SDS011;7139;48.114;11.442;2022-09-09T11:02:12;11.50;;;2.20;;
14121;SDS011;7139;48.114;11.442;2022-09-09T11:04:44;4.30;;;1.40;;
14121;SDS011;7139;48.114;11.442;2022-09-09T11:07:16;1.47;;;1.20;;
14121;SDS011;7139;48.114;11.442;2022-09-09T11:09:52;1.17;;;1.07;;
14121;SDS011;7139;48.114;11.442;2022-09-09T11:12:24;2.30;;;1.23;;
14121;SDS011;7139;48.114;11.442;2022-09-09T11:14:54;1.27;;;1.17;;
14121;SDS011;7139;48.114;11.442;2022-09-09T11:17:27;3.33;;;1.20;;
14121;SDS011;7139;48.114;11.442;2022-09-09T11:19:59;1.67;;;1.10;;
14121;SDS011;7139;48.114;11.442;2022-09-09T11:22:27;2.43;;;1.37;;
14121;SDS011;7139;48.114;11.442;2022-09-09T11:24:59;1.20;;;1.10;;
14121;SDS011;7139;48.114;11.442;2022-09-09T11:27:31;1.67;;;1.10;;
14121;SDS011;7139;48.114;11.442;2022-09-09T11:30:17;2.60;;;1.20;;
14121;SDS011;7139;48.114;11.442;2022-09-09T11:36:00;2.53;;;1.10;;
14121;SDS011;7139;48.114;11.442;2022-09-09T11:38:40;1.40;;;1.00;;
14121;SDS011;7139;48.114;11.442;2022-09-09T11:41:11;1.67;;;1.10;;
14121;SDS011;7139;48.114;11.442;2022-09-09T11:43:41;1.80;;;1.10;;
14121;SDS011;7139;48.114;11.442;2022-09-09T11:46:09;2.10;;;1.10;;
14121;SDS011;7139;48.114;11.442;2022-09-09T11:48:38;2.00;;;1.10;;
14121;SDS011;7139;48.114;11.442;2022-09-09T11:51:10;2.60;;;1.20;;
14121;SDS011;7139;48.114;11.442;2022-09-09T11:53:47;1.67;;;1.13;;
14121;SDS011;7139;48.114;11.442;2022-09-09T11:56:24;2.03;;;1.10;;
14121;SDS011;7139;48.114;11.442;2022-09-09T11:58:57;1.50;;;1.10;;
14121;SDS011;7139;48.114;11.442;2022-09-09T12:01:28;1.37;;;1.00;;
14121;SDS011;7139;48.114;11.442;2022-09-09T12:04:26;1.53;;;1.20;;
14121;SDS011;7139;48.114;11.442;2022-09-09T12:06:59;1.60;;;1.10;;
14121;SDS011;7139;48.114;11.442;2022-09-09T12:09:29;2.60;;;1.10;;
14121;SDS011;7139;48.114;11.442;2022-09-09T12:12:27;1.30;;;1.20;;
14121;SDS011;7139;48.114;11.442;2022-09-09T12:15:16;1.20;;;1.07;;
14121;SDS011;7139;48.114;11.442;2022-09-09T12:17:46;1.27;;;1.10;;
14121;SDS011;7139;48.114;11.442;2022-09-09T12:20:16;1.33;;;1.07;;
14121;SDS011;7139;48.114;11.442;2022-09-09T12:25:37;1.17;;;1.00;;
14121;SDS011;7139;48.114;11.442;2022-09-09T12:28:15;2.77;;;1.00;;
14121;SDS011;7139;48.114;11.442;2022-09-09T12:30:46;2.23;;;1.03;;
14121;SDS011;7139;48.114;11.442;2022-09-09T12:33:18;1.20;;;0.80;;
14121;SDS011;7139;48.114;11.442;2022-09-09T12:35:48;1.63;;;0.90;;
14121;SDS011;7139;48.114;11.442;2022-09-09T12:38:22;1.83;;;1.20;;
14121;SDS011;7139;48.114;11.442;2022-09-09T12:40:56;1.90;;;1.10;;
14121;SDS011;7139;48.114;11.442;2022-09-09T12:43:25;1.50;;;1.00;;
14121;SDS011;7139;48.114;11.442;2022-09-09T12:45:53;1.23;;;1.00;;
14121;SDS011;7139;48.114;11.442;2022-09-09T12:48:27;1.27;;;0.90;;
14121;SDS011;7139;48.114;11.442;2022-09-09T12:50:57;1.83;;;1.10;;
14121;SDS011;7139;48.114;11.442;2022-09-09T12:53:27;2.17;;;1.00;;
14121;SDS011;7139;48.114;11.442;2022-09-09T12:55:58;2.63;;;1.07;;
14121;SDS011;7139;48.114;11.442;2022-09-09T12:58:27;1.33;;;1.00;;
14121;SDS011;7139;48.114;11.442;2022-09-09T13:00:58;1.87;;;0.90;;
14121;SDS011;7139;48.114;11.442;2022-09-09T13:03:26;1.03;;;0.93;;
14121;SDS011;7139;48.114;11.442;2022-09-09T13:05:53;1.83;;;0.93;;
14121;SDS011;7139;48.114;11.442;2022-09-09T13:08:26;0.97;;;0.87;;
14121;SDS011;7139;48.114;11.442;2022-09-09T13:10:54;1.33;;;1.00;;
14121;SDS011;7139;48.114;11.442;2022-09-09T13:13:26;1.63;;;1.10;;
14121;SDS011;7139;48.114;11.442;2022-09-09T13:15:55;2.27;;;1.20;;
14121;SDS011;7139;48.114;11.442;2022-09-09T13:18:24;1.20;;;0.90;;
14121;SDS011;7139;48.114;11.442;2022-09-09T13:20:54;1.17;;;0.90;;
14121;SDS011;7139;48.114;11.442;2022-09-09T13:23:22;1.03;;;0.90;;
14121;SDS011;7139;48.114;11.442;2022-09-09T13:25:55;1.80;;;1.03;;
14121;SDS011;7139;48.114;11.442;2022-09-09T13:28:23;1.20;;;0.90;;
14121;SDS011;7139;48.114;11.442;2022-09-09T13:30:58;2.70;;;1.00;;
14121;SDS011;7139;48.114;11.442;2022-09-09T13:33:29;1.37;;;0.93;;
14121;SDS011;7139;48.114;11.442;2022-09-09T13:35:58;1.70;;;1.00;;
14121;SDS011;7139;48.114;11.442;2022-09-09T13:38:29;1.77;;;1.00;;
14121;SDS011;7139;48.114;11.442;2022-09-09T13:41:00;2.60;;;1.00;;
14121;SDS011;7139;48.114;11.442;2022-09-09T13:43:34;1.33;;;1.10;;
14121;SDS011;7139;48.114;11.442;2022-09-09T13:46:04;3.17;;;1.10;;
14121;SDS011;7139;48.114;11.442;2022-09-09T13:48:53;3.03;;;1.30;;
14121;SDS011;7139;48.114;11.442;2022-09-09T13:51:23;1.70;;;1.10;;
14121;SDS011;7139;48.114;11.442;2022-09-09T13:54:00;1.50;;;0.80;;
14121;SDS011;7139;48.114;11.442;2022-09-09T13:56:27;0.80;;;0.80;;
14121;SDS011;7139;48.114;11.442;2022-09-09T13:58:54;2.23;;;0.87;;
14121;SDS011;7139;48.114;11.442;2022-09-09T14:01:23;2.17;;;1.10;;
14121;SDS011;7139;48.114;11.442;2022-09-09T14:03:50;1.97;;;1.00;;
14121;SDS011;7139;48.114;11.442;2022-09-09T14:06:17;2.57;;;1.10;;
14121;SDS011;7139;48.114;11.442;2022-09-09T14:08:46;2.77;;;1.10;;
14121;SDS011;7139;48.114;11.442;2022-09-09T14:11:15;1.47;;;1.00;;
14121;SDS011;7139;48.114;11.442;2022-09-09T14:13:42;2.50;;;1.23;;
14121;SDS011;7139;48.114;11.442;2022-09-09T14:16:09;1.97;;;1.03;;
14121;SDS011;7139;48.114;11.442;2022-09-09T14:18:36;1.13;;;0.93;;
14121;SDS011;7139;48.114;11.442;2022-09-09T14:21:04;1.30;;;0.93;;
14121;SDS011;7139;48.114;11.442;2022-09-09T14:23:31;1.10;;;1.00;;
14121;SDS011;7139;48.114;11.442;2022-09-09T14:25:57;3.90;;;1.13;;
14121;SDS011;7139;48.114;11.442;2022-09-09T14:28:25;2.13;;;1.03;;
14121;SDS011;7139;48.114;11.442;2022-09-09T14:30:53;1.33;;;0.90;;
14121;SDS011;7139;48.114;11.442;2022-09-09T14:33:20;1.93;;;0.97;;
14121;SDS011;7139;48.114;11.442;2022-09-09T14:35:47;2.20;;;0.93;;
14121;SDS011;7139;48.114;11.442;2022-09-09T14:38:13;3.43;;;1.20;;
14121;SDS011;7139;48.114;11.442;2022-09-09T14:40:40;1.57;;;1.10;;
14121;SDS011;7139;48.114;11.442;2022-09-09T14:43:11;1.80;;;1.20;;
14121;SDS011;7139;48.114;11.442;2022-09-09T14:45:40;2.07;;;1.00;;
14121;SDS011;7139;48.114;11.442;2022-09-09T14:48:08;1.83;;;1.00;;
14121;SDS011;7139;48.114;11.442;2022-09-09T14:50:35;2.33;;;0.97;;
14121;SDS011;7139;48.114;11.442;2022-09-09T14:53:04;1.27;;;0.97;;
14121;SDS011;7139;48.114;11.442;2022-09-09T14:55:32;3.30;;;1.20;;
14121;SDS011;7139;48.114;11.442;2022-09-09T14:57:58;3.20;;;1.17;;
14121;SDS011;7139;48.114;11.442;2022-09-09T15:00:25;1.90;;;0.97;;
14121;SDS011;7139;48.114;11.442;2022-09-09T15:02:54;0.73;;;0.70;;
14121;SDS011;7139;48.114;11.442;2022-09-09T15:05:21;2.27;;;1.00;;
14121;SDS011;7139;48.114;11.442;2022-09-09T15:07:49;2.73;;;0.90;;
14121;SDS011;7139;48.114;11.442;2022-09-09T15:10:16;2.03;;;0.90;;
14121;SDS011;7139;48.114;11.442;2022-09-09T15:12:43;4.00;;;1.20;;
14121;SDS011;7139;48.114;11.442;2022-09-09T15:15:10;2.70;;;1.30;;
14121;SDS011;7139;48.114;11.442;2022-09-09T15:17:37;2.00;;;1.00;;
14121;SDS011;7139;48.114;11.442;2022-09-09T15:20:06;4.53;;;1.13;;
14121;SDS011;7139;48.114;11.442;2022-09-09T15:22:33;1.00;;;0.90;;